sensor_id;sensor_type;location;lat;lon;timestamp;pressure;altitude;pressure_sealevel;temperature;humidity
20003;BME280;10162;41.600;23.806;2023-05-16T00:02:28;94976.09;;;12.06;100.00
20003;BME280;10162;41.600;23.806;2023-05-16T00:09:37;94969.44;;;12.04;100.00
20003;BME280;10162;41.600;23.806;2023-05-16T00:12:05;94943.91;;;11.86;100.00
20003;BME280;10162;41.600;23.806;2023-05-16T00:14:31;94942.06;;;11.93;100.00
20003;BME280;10162;41.600;23.806;2023-05-16T00:21:05;94940.06;;;11.95;100.00
20003;BME280;10162;41.600;23.806;2023-05-16T00:23:34;94988.34;;;12.19;100.00
20003;BME280;10162;41.600;23.806;2023-05-16T00:29:56;94926.63;;;11.65;100.00
20003;BME280;10162;41.600;23.806;2023-05-16T00:32:25;94907.09;;;11.61;100.00
20003;BME280;10162;41.600;23.806;2023-05-16T00:38:49;94914.53;;;11.71;100.00
20003;BME280;10162;41.600;23.806;2023-05-16T00:41:17;94916.16;;;11.65;100.00
20003;BME280;10162;41.600;23.806;2023-05-16T00:43:44;94902.88;;;11.53;100.00
20003;BME280;10162;41.600;23.806;2023-05-16T01:00:59;94882.50;;;11.62;100.00
20003;BME280;10162;41.600;23.806;2023-05-16T01:03:31;94877.56;;;11.41;100.00
20003;BME280;10162;41.600;23.806;2023-05-16T01:10:08;94880.22;;;11.28;100.00
20003;BME280;10162;41.600;23.806;2023-05-16T01:20:19;94937.84;;;11.92;100.00
20003;BME280;10162;41.600;23.806;2023-05-16T01:29:40;94865.78;;;11.76;100.00
20003;BME280;10162;41.600;23.806;2023-05-16T01:32:07;94870.84;;;11.65;100.00
20003;BME280;10162;41.600;23.806;2023-05-16T01:34:34;94861.00;;;11.53;100.00
20003;BME280;10162;41.600;23.806;2023-05-16T01:41:15;94896.06;;;12.04;100.00
20003;BME280;10162;41.600;23.806;2023-05-16T01:44:01;94841.41;;;11.69;100.00
20003;BME280;10162;41.600;23.806;2023-05-16T01:50:27;94845.22;;;11.80;100.00
20003;BME280;10162;41.600;23.806;2023-05-16T01:53:13;94840.41;;;11.77;100.00
20003;BME280;10162;41.600;23.806;2023-05-16T01:59:41;94835.78;;;11.79;100.00
20003;BME280;10162;41.600;23.806;2023-05-16T02:02:12;94835.53;;;11.80;100.00
20003;BME280;10162;41.600;23.806;2023-05-16T02:04:38;94852.31;;;11.59;100.00
20003;BME280;10162;41.600;23.806;2023-05-16T02:07:04;94854.09;;;11.79;100.00
20003;BME280;10162;41.600;23.806;2023-05-16T02:09:31;94807.56;;;11.74;100.00
20003;BME280;10162;41.600;23.806;2023-05-16T02:11:58;94826.69;;;11.68;100.00
20003;BME280;10162;41.600;23.806;2023-05-16T02:14:26;94811.78;;;11.69;100.00
20003;BME280;10162;41.600;23.806;2023-05-16T02:20:51;94822.47;;;11.74;100.00
20003;BME280;10162;41.600;23.806;2023-05-16T02:23:20;94885.81;;;12.02;100.00
20003;BME280;10162;41.600;23.806;2023-05-16T02:29:42;94825.53;;;11.57;100.00
20003;BME280;10162;41.600;23.806;2023-05-16T02:32:13;94825.81;;;11.43;100.00
20003;BME280;10162;41.600;23.806;2023-05-16T02:34:40;94829.41;;;11.48;100.00
20003;BME280;10162;41.600;23.806;2023-05-16T02:37:11;94835.56;;;11.74;100.00
20003;BME280;10162;41.600;23.806;2023-05-16T02:39:37;94832.53;;;11.77;100.00
20003;BME280;10162;41.600;23.806;2023-05-16T02:42:06;94840.03;;;11.60;100.00
20003;BME280;10162;41.600;23.806;2023-05-16T02:44:36;94838.00;;;11.62;100.00
20003;BME280;10162;41.600;23.806;2023-05-16T02:50:59;94836.81;;;11.58;100.00
20003;BME280;10162;41.600;23.806;2023-05-16T02:53:27;94856.09;;;11.70;100.00
20003;BME280;10162;41.600;23.806;2023-05-16T02:59:46;94845.25;;;11.67;100.00
20003;BME280;10162;41.600;23.806;2023-05-16T03:02:12;94824.19;;;11.42;100.00
20003;BME280;10162;41.600;23.806;2023-05-16T03:04:38;94822.56;;;11.47;100.00
20003;BME280;10162;41.600;23.806;2023-05-16T03:07:07;94817.31;;;11.47;100.00
20003;BME280;10162;41.600;23.806;2023-05-16T03:09:33;94824.25;;;11.22;100.00
20003;BME280;10162;41.600;23.806;2023-05-16T03:11:59;94822.84;;;11.26;100.00
20003;BME280;10162;41.600;23.806;2023-05-16T03:14:26;94855.31;;;11.63;100.00
20003;BME280;10162;41.600;23.806;2023-05-16T03:23:19;94848.72;;;11.54;100.00
20003;BME280;10162;41.600;23.806;2023-05-16T03:29:47;94828.66;;;11.28;100.00
20003;BME280;10162;41.600;23.806;2023-05-16T03:33:25;94837.13;;;11.24;100.00
20003;BME280;10162;41.600;23.806;2023-05-16T03:41:52;94892.31;;;11.86;100.00
20003;BME280;10162;41.600;23.806;2023-05-16T03:44:21;94847.28;;;11.58;100.00
20003;BME280;10162;41.600;23.806;2023-05-16T03:50:42;94827.72;;;11.67;100.00
20003;BME280;10162;41.600;23.806;2023-05-16T03:53:08;94862.88;;;11.91;100.00
20003;BME280;10162;41.600;23.806;2023-05-16T03:59:29;94838.44;;;12.04;100.00
20003;BME280;10162;41.600;23.806;2023-05-16T04:01:56;94864.97;;;12.14;100.00
20003;BME280;10162;41.600;23.806;2023-05-16T04:04:22;94835.97;;;11.77;100.00
20003;BME280;10162;41.600;23.806;2023-05-16T04:10:46;94850.47;;;12.18;100.00
20003;BME280;10162;41.600;23.806;2023-05-16T04:13:13;94842.47;;;12.06;100.00
20003;BME280;10162;41.600;23.806;2023-05-16T04:19:37;94830.84;;;12.27;100.00
20003;BME280;10162;41.600;23.806;2023-05-16T04:22:05;94841.81;;;12.42;100.00
20003;BME280;10162;41.600;23.806;2023-05-16T04:24:32;94844.91;;;12.64;100.00
20003;BME280;10162;41.600;23.806;2023-05-16T04:30:52;94853.22;;;13.04;100.00
20003;BME280;10162;41.600;23.806;2023-05-16T04:33:20;94840.00;;;13.17;100.00
20003;BME280;10162;41.600;23.806;2023-05-16T04:39:40;94860.66;;;13.50;100.00
20003;BME280;10162;41.600;23.806;2023-05-16T04:42:07;94875.84;;;13.48;100.00
20003;BME280;10162;41.600;23.806;2023-05-16T04:44:32;94879.75;;;13.39;100.00
20003;BME280;10162;41.600;23.806;2023-05-16T04:50:53;94870.63;;;13.23;100.00
20003;BME280;10162;41.600;23.806;2023-05-16T04:53:20;94880.44;;;13.52;100.00
20003;BME280;10162;41.600;23.806;2023-05-16T04:59:39;94856.81;;;13.09;100.00
20003;BME280;10162;41.600;23.806;2023-05-16T11:03:23;94720.09;;;19.84;100.00
20003;BME280;10162;41.600;23.806;2023-05-16T15:58:30;94724.50;;;17.73;100.00
20003;BME280;10162;41.600;23.806;2023-05-16T16:27:08;94675.34;;;16.85;100.00
20003;BME280;10162;41.600;23.806;2023-05-16T17:34:29;94681.44;;;15.86;100.00
20003;BME280;10162;41.600;23.806;2023-05-16T17:49:20;94675.78;;;15.94;100.00
20003;BME280;10162;41.600;23.806;2023-05-16T17:51:54;94653.28;;;15.58;100.00
20003;BME280;10162;41.600;23.806;2023-05-16T17:59:02;94690.25;;;15.63;100.00
20003;BME280;10162;41.600;23.806;2023-05-16T18:01:36;94681.41;;;15.69;100.00
20003;BME280;10162;41.600;23.806;2023-05-16T18:09:43;94695.72;;;15.33;100.00
20003;BME280;10162;41.600;23.806;2023-05-16T18:12:23;94731.53;;;15.57;100.00
20003;BME280;10162;41.600;23.806;2023-05-16T18:18:45;94707.81;;;15.06;100.00
20003;BME280;10162;41.600;23.806;2023-05-16T18:21:16;94720.28;;;15.10;100.00
20003;BME280;10162;41.600;23.806;2023-05-16T18:23:44;94715.00;;;15.22;100.00
20003;BME280;10162;41.600;23.806;2023-05-16T18:30:10;94737.31;;;15.31;100.00
20003;BME280;10162;41.600;23.806;2023-05-16T18:32:37;94752.38;;;15.47;100.00
20003;BME280;10162;41.600;23.806;2023-05-16T18:39:00;94742.41;;;15.49;100.00
20003;BME280;10162;41.600;23.806;2023-05-16T18:41:26;94756.97;;;15.40;100.00
20003;BME280;10162;41.600;23.806;2023-05-16T18:43:52;94729.38;;;15.03;100.00
20003;BME280;10162;41.600;23.806;2023-05-16T18:50:13;94736.09;;;14.99;100.00
20003;BME280;10162;41.600;23.806;2023-05-16T18:52:39;94731.09;;;14.97;100.00
20003;BME280;10162;41.600;23.806;2023-05-16T18:58:34;94771.34;;;15.09;100.00
20003;BME280;10162;41.600;23.806;2023-05-16T19:01:00;94753.88;;;14.92;100.00
20003;BME280;10162;41.600;23.806;2023-05-16T19:03:26;94764.25;;;14.98;100.00
20003;BME280;10162;41.600;23.806;2023-05-16T19:09:45;94760.50;;;14.82;100.00
20003;BME280;10162;41.600;23.806;2023-05-16T19:12:12;94749.88;;;14.66;100.00
20003;BME280;10162;41.600;23.806;2023-05-16T19:14:38;94763.94;;;14.71;100.00
20003;BME280;10162;41.600;23.806;2023-05-16T19:17:03;94759.38;;;14.78;100.00
20003;BME280;10162;41.600;23.806;2023-05-16T19:19:29;94772.84;;;14.59;100.00
20003;BME280;10162;41.600;23.806;2023-05-16T19:21:55;94779.72;;;14.71;100.00
20003;BME280;10162;41.600;23.806;2023-05-16T19:24:22;94789.44;;;14.94;100.00
20003;BME280;10162;41.600;23.806;2023-05-16T19:26:56;94798.25;;;14.65;100.00
20003;BME280;10162;41.600;23.806;2023-05-16T19:29:21;94799.59;;;14.44;100.00
20003;BME280;10162;41.600;23.806;2023-05-16T19:31:47;94804.34;;;14.35;100.00
20003;BME280;10162;41.600;23.806;2023-05-16T19:34:14;94796.31;;;14.30;100.00
20003;BME280;10162;41.600;23.806;2023-05-16T19:41:05;94837.22;;;14.44;100.00
20003;BME280;10162;41.600;23.806;2023-05-16T19:43:32;94815.31;;;14.32;100.00
20003;BME280;10162;41.600;23.806;2023-05-16T19:46:29;94815.19;;;14.27;100.00
20003;BME280;10162;41.600;23.806;2023-05-16T19:48:56;94799.06;;;14.35;100.00
20003;BME280;10162;41.600;23.806;2023-05-16T19:51:22;94777.38;;;14.28;100.00
20003;BME280;10162;41.600;23.806;2023-05-16T19:53:48;94769.06;;;14.13;100.00
20003;BME280;10162;41.600;23.806;2023-05-16T19:56:22;94722.19;;;13.98;100.00
20003;BME280;10162;41.600;23.806;2023-05-16T19:58:48;94740.56;;;14.28;100.00
20003;BME280;10162;41.600;23.806;2023-05-16T20:01:14;94727.72;;;14.20;100.00
20003;BME280;10162;41.600;23.806;2023-05-16T20:03:40;94710.00;;;14.04;100.00
20003;BME280;10162;41.600;23.806;2023-05-16T20:10:00;94765.44;;;14.14;100.00
20003;BME280;10162;41.600;23.806;2023-05-16T20:12:30;94702.72;;;13.76;100.00
20003;BME280;10162;41.600;23.806;2023-05-16T20:15:06;94731.94;;;14.10;100.00
20003;BME280;10162;41.600;23.806;2023-05-16T20:17:34;94702.97;;;13.86;100.00
20003;BME280;10162;41.600;23.806;2023-05-16T20:20:00;94744.50;;;14.07;100.00
20003;BME280;10162;41.600;23.806;2023-05-16T20:22:28;94742.59;;;14.26;100.00
20003;BME280;10162;41.600;23.806;2023-05-16T20:25:02;94716.09;;;14.28;100.00
20003;BME280;10162;41.600;23.806;2023-05-16T20:27:29;94728.53;;;14.32;100.00
20003;BME280;10162;41.600;23.806;2023-05-16T20:29:54;94715.94;;;14.11;100.00
20003;BME280;10162;41.600;23.806;2023-05-16T20:32:21;94699.16;;;13.71;100.00
20003;BME280;10162;41.600;23.806;2023-05-16T20:34:47;94686.13;;;13.64;100.00
20003;BME280;10162;41.600;23.806;2023-05-16T20:37:13;94679.44;;;13.50;100.00
20003;BME280;10162;41.600;23.806;2023-05-16T20:39:39;94677.06;;;13.48;100.00
20003;BME280;10162;41.600;23.806;2023-05-16T20:42:07;94704.44;;;13.71;100.00
20003;BME280;10162;41.600;23.806;2023-05-16T20:44:37;94686.00;;;13.59;100.00
20003;BME280;10162;41.600;23.806;2023-05-16T20:47:23;94724.94;;;14.03;100.00
20003;BME280;10162;41.600;23.806;2023-05-16T20:49:50;94662.41;;;13.71;100.00
20003;BME280;10162;41.600;23.806;2023-05-16T20:52:16;94666.63;;;13.72;100.00
20003;BME280;10162;41.600;23.806;2023-05-16T20:58:39;94672.03;;;13.47;100.00
20003;BME280;10162;41.600;23.806;2023-05-16T21:01:08;94676.59;;;13.51;100.00
20003;BME280;10162;41.600;23.806;2023-05-16T21:03:33;94672.44;;;13.74;100.00
20003;BME280;10162;41.600;23.806;2023-05-16T21:09:53;94717.81;;;13.81;100.00
20003;BME280;10162;41.600;23.806;2023-05-16T21:12:19;94707.53;;;13.79;100.00
20003;BME280;10162;41.600;23.806;2023-05-16T21:14:45;94692.19;;;13.64;100.00
20003;BME280;10162;41.600;23.806;2023-05-16T21:21:07;94681.00;;;13.69;100.00
20003;BME280;10162;41.600;23.806;2023-05-16T21:23:34;94692.91;;;13.72;100.00
20003;BME280;10162;41.600;23.806;2023-05-16T21:29:00;94660.84;;;13.51;100.00
20003;BME280;10162;41.600;23.806;2023-05-16T21:31:27;94644.88;;;13.53;100.00
20003;BME280;10162;41.600;23.806;2023-05-16T21:33:56;94651.84;;;13.59;100.00
20003;BME280;10162;41.600;23.806;2023-05-16T21:40:20;94648.88;;;13.67;100.00
20003;BME280;10162;41.600;23.806;2023-05-16T21:42:55;94638.75;;;13.71;100.00
20003;BME280;10162;41.600;23.806;2023-05-16T21:49:27;94660.47;;;13.78;100.00
20003;BME280;10162;41.600;23.806;2023-05-16T21:52:12;94645.56;;;13.48;100.00
20003;BME280;10162;41.600;23.806;2023-05-16T21:54:43;94644.13;;;13.34;100.00
20003;BME280;10162;41.600;23.806;2023-05-16T21:57:17;94637.22;;;13.21;100.00
20003;BME280;10162;41.600;23.806;2023-05-16T21:59:44;94637.06;;;13.35;100.00
20003;BME280;10162;41.600;23.806;2023-05-16T22:02:13;94641.41;;;13.41;100.00
20003;BME280;10162;41.600;23.806;2023-05-16T22:04:43;94634.16;;;13.24;100.00
20003;BME280;10162;41.600;23.806;2023-05-16T22:07:10;94638.13;;;13.15;100.00
20003;BME280;10162;41.600;23.806;2023-05-16T22:09:38;94641.53;;;13.16;100.00
20003;BME280;10162;41.600;23.806;2023-05-16T22:12:10;94640.22;;;13.07;100.00
20003;BME280;10162;41.600;23.806;2023-05-16T22:14:38;94646.50;;;13.06;100.00
20003;BME280;10162;41.600;23.806;2023-05-16T22:17:07;94633.44;;;12.99;100.00
20003;BME280;10162;41.600;23.806;2023-05-16T22:19:34;94656.31;;;13.10;100.00
20003;BME280;10162;41.600;23.806;2023-05-16T22:22:02;94637.41;;;12.90;100.00
20003;BME280;10162;41.600;23.806;2023-05-16T22:24:42;94631.16;;;12.91;100.00
20003;BME280;10162;41.600;23.806;2023-05-16T22:27:10;94646.09;;;12.91;100.00
20003;BME280;10162;41.600;23.806;2023-05-16T22:29:50;94637.16;;;13.10;100.00
20003;BME280;10162;41.600;23.806;2023-05-16T22:32:16;94629.66;;;12.95;100.00
20003;BME280;10162;41.600;23.806;2023-05-16T22:34:43;94620.66;;;12.91;100.00
20003;BME280;10162;41.600;23.806;2023-05-16T22:37:09;94612.03;;;13.02;100.00
20003;BME280;10162;41.600;23.806;2023-05-16T22:39:35;94615.47;;;13.03;100.00
20003;BME280;10162;41.600;23.806;2023-05-16T22:42:01;94611.09;;;13.15;100.00
20003;BME280;10162;41.600;23.806;2023-05-16T22:44:31;94633.50;;;13.11;100.00
20003;BME280;10162;41.600;23.806;2023-05-16T22:50:52;94615.00;;;13.06;100.00
20003;BME280;10162;41.600;23.806;2023-05-16T22:53:27;94625.50;;;13.24;100.00
20003;BME280;10162;41.600;23.806;2023-05-16T22:59:52;94618.75;;;12.98;100.00
20003;BME280;10162;41.600;23.806;2023-05-16T23:02:21;94617.66;;;12.88;100.00
20003;BME280;10162;41.600;23.806;2023-05-16T23:08:44;94611.03;;;12.85;100.00
20003;BME280;10162;41.600;23.806;2023-05-16T23:11:11;94609.78;;;12.88;100.00
20003;BME280;10162;41.600;23.806;2023-05-16T23:13:38;94610.50;;;12.95;100.00
20003;BME280;10162;41.600;23.806;2023-05-16T23:19:59;94588.13;;;12.62;100.00
20003;BME280;10162;41.600;23.806;2023-05-16T23:22:26;94583.22;;;12.66;100.00
20003;BME280;10162;41.600;23.806;2023-05-16T23:28:48;94625.38;;;13.01;100.00
20003;BME280;10162;41.600;23.806;2023-05-16T23:31:18;94586.84;;;12.65;100.00
20003;BME280;10162;41.600;23.806;2023-05-16T23:33:47;94597.06;;;12.73;100.00
20003;BME280;10162;41.600;23.806;2023-05-16T23:40:11;94599.19;;;12.94;100.00
20003;BME280;10162;41.600;23.806;2023-05-16T23:42:38;94589.25;;;12.84;100.00
20003;BME280;10162;41.600;23.806;2023-05-16T23:49:02;94604.91;;;12.91;100.00
20003;BME280;10162;41.600;23.806;2023-05-16T23:51:29;94592.28;;;12.81;100.00
20003;BME280;10162;41.600;23.806;2023-05-16T23:53:57;94626.59;;;13.16;100.00
